Terminal Aerodrome Forecast
Issued by NWS

Home | Current Version | Previous Version | Graphics & Text | Print | Product List | Glossary Off
Versions: 1 2 3 4 5 6 7 8 9 10 11 12

616
FTUS43 KUNR 261720
TAFGCC
TAF
KGCC 261720Z 2618/2718 17014KT P6SM SKC
     FM270400 17017G27KT P6SM SCT150
     FM271500 33014KT P6SM SCT120=

USA.gov is the U.S. government's official web portal to all federal, state and local government web resources and services.